createdAt,value
2017-09-28T00:00:08.510Z,90.60
2017-09-28T00:02:36.695Z,90.60
2017-09-28T00:05:04.249Z,90.60
2017-09-28T00:07:31.786Z,90.60
2017-09-28T00:09:59.375Z,90.60
2017-09-28T00:12:26.961Z,90.60
2017-09-28T00:14:54.545Z,90.60
2017-09-28T00:17:23.025Z,90.60
2017-09-28T00:19:51.329Z,90.60
2017-09-28T00:22:19.531Z,90.90
2017-09-28T00:24:47.076Z,90.60
2017-09-28T00:27:14.926Z,90.60
2017-09-28T00:29:42.474Z,90.60
2017-09-28T00:32:10.023Z,90.60
2017-09-28T00:34:38.401Z,90.50
2017-09-28T00:37:06.718Z,90.60
2017-09-28T00:39:34.759Z,90.50
2017-09-28T00:42:02.302Z,90.50
2017-09-28T00:44:30.614Z,90.50
2017-09-28T00:46:58.194Z,90.50
2017-09-28T00:49:25.777Z,90.50
2017-09-28T00:51:53.365Z,90.50
2017-09-28T00:54:21.866Z,90.50
2017-09-28T00:56:49.411Z,90.50
2017-09-28T00:59:17.753Z,90.50
2017-09-28T01:01:45.294Z,90.50
2017-09-28T01:04:12.878Z,90.50
2017-09-28T01:06:40.465Z,90.50
2017-09-28T01:09:11.462Z,90.50
2017-09-28T01:11:41.893Z,90.50
2017-09-28T01:14:09.438Z,90.50
2017-09-28T01:16:36.994Z,90.50
2017-09-28T01:19:05.158Z,90.50
2017-09-28T01:21:32.694Z,90.50
2017-09-28T01:24:01.194Z,90.50
2017-09-28T01:26:28.746Z,90.50
2017-09-28T01:28:56.359Z,90.50
2017-09-28T01:31:23.910Z,90.50
2017-09-28T01:33:52.799Z,90.50
2017-09-28T01:36:20.350Z,90.50
2017-09-28T01:38:47.908Z,90.60
2017-09-28T01:41:15.493Z,90.50
2017-09-28T01:43:43.039Z,90.60
2017-09-28T01:46:10.776Z,90.60
2017-09-28T01:48:38.327Z,90.60
2017-09-28T01:51:05.959Z,90.60
2017-09-28T01:53:34.274Z,90.60
2017-09-28T01:56:01.856Z,90.60
2017-09-28T01:58:29.406Z,90.60
2017-09-28T02:00:56.990Z,90.60
2017-09-28T02:03:24.529Z,90.60
2017-09-28T02:05:52.106Z,90.60
2017-09-28T02:08:19.649Z,90.70
2017-09-28T02:10:47.225Z,90.70
2017-09-28T02:13:14.786Z,90.70
2017-09-28T02:15:42.369Z,90.70
2017-09-28T02:18:09.909Z,90.80
2017-09-28T02:20:38.028Z,90.80
2017-09-28T02:23:06.338Z,90.80
2017-09-28T02:25:33.891Z,90.80
2017-09-28T02:28:07.215Z,90.80
2017-09-28T02:30:34.807Z,90.80
2017-09-28T02:33:03.124Z,90.80
2017-09-28T02:35:30.735Z,90.80
2017-09-28T02:37:58.279Z,90.90
2017-09-28T02:40:25.825Z,91.00
2017-09-28T02:42:53.798Z,90.90
2017-09-28T02:45:21.350Z,90.90
2017-09-28T02:47:48.900Z,90.90
2017-09-28T02:50:16.562Z,90.90
2017-09-28T02:52:44.117Z,90.90
2017-09-28T02:55:11.706Z,91.00
2017-09-28T02:57:39.293Z,91.00
2017-09-28T03:00:07.665Z,91.00
2017-09-28T03:02:35.200Z,91.00
2017-09-28T03:05:02.739Z,91.00
2017-09-28T03:07:30.328Z,91.00
2017-09-28T03:09:57.865Z,91.00
2017-09-28T03:12:25.456Z,91.00
2017-09-28T03:14:52.999Z,91.00
2017-09-28T03:17:20.967Z,91.00
2017-09-28T03:19:48.512Z,91.00
2017-09-28T03:22:16.054Z,91.10
2017-09-28T03:24:43.628Z,91.10
2017-09-28T03:27:11.482Z,91.10
2017-09-28T03:29:39.026Z,91.10
2017-09-28T03:32:06.574Z,91.10
2017-09-28T03:34:34.923Z,91.10
2017-09-28T03:37:04.075Z,91.10
2017-09-28T03:39:31.623Z,91.10
2017-09-28T03:41:59.166Z,91.10
2017-09-28T03:44:27.529Z,91.10
2017-09-28T03:46:55.073Z,91.10
2017-09-28T03:49:24.265Z,91.10
2017-09-28T03:51:51.809Z,91.10
2017-09-28T03:54:19.355Z,91.20
2017-09-28T03:56:47.252Z,91.20
2017-09-28T03:59:14.803Z,91.10
2017-09-28T04:01:42.349Z,91.10
2017-09-28T04:04:09.930Z,91.20
2017-09-28T04:06:37.509Z,91.20
2017-09-28T04:09:05.049Z,91.20
2017-09-28T04:11:32.635Z,91.20
2017-09-28T04:14:00.178Z,91.20
2017-09-28T04:16:27.755Z,91.20
2017-09-28T04:18:55.549Z,91.20
2017-09-28T04:21:23.888Z,91.20
2017-09-28T04:23:51.433Z,91.20
2017-09-28T04:26:19.390Z,91.20
2017-09-28T04:28:46.939Z,91.20
2017-09-28T04:31:14.489Z,91.20
2017-09-28T04:33:42.077Z,91.30
2017-09-28T04:36:09.618Z,91.20
2017-09-28T04:38:37.201Z,91.20
2017-09-28T04:41:04.757Z,91.20
2017-09-28T04:43:32.333Z,91.20
2017-09-28T04:45:59.877Z,91.20
2017-09-28T04:48:27.467Z,91.20
2017-09-28T04:50:55.120Z,91.20
2017-09-28T04:53:22.663Z,91.20
2017-09-28T04:55:50.237Z,91.20
2017-09-28T04:58:17.777Z,91.20
2017-09-28T05:00:45.358Z,91.20
2017-09-28T05:03:12.946Z,91.10
2017-09-28T05:05:41.735Z,91.10
2017-09-28T05:08:10.107Z,91.10
2017-09-28T05:10:37.649Z,91.10
2017-09-28T05:13:05.661Z,91.10
2017-09-28T05:15:33.206Z,91.10
2017-09-28T05:18:01.566Z,91.10
2017-09-28T05:20:29.150Z,91.10
2017-09-28T05:22:57.503Z,91.10
2017-09-28T05:25:25.042Z,91.10
2017-09-28T05:27:53.892Z,91.10
2017-09-28T05:30:23.196Z,91.10
2017-09-28T05:32:51.121Z,91.10
2017-09-28T05:35:18.666Z,91.10
2017-09-28T05:37:46.207Z,91.10
2017-09-28T05:40:13.804Z,91.10
2017-09-28T05:42:41.446Z,91.10
2017-09-28T05:45:08.985Z,91.10
2017-09-28T05:47:37.679Z,91.10
2017-09-28T05:50:05.218Z,91.20
2017-09-28T05:52:32.833Z,91.10
2017-09-28T05:55:00.382Z,91.10
2017-09-28T05:57:27.934Z,91.10
2017-09-28T05:59:55.664Z,91.10
2017-09-28T06:02:23.201Z,91.10
2017-09-28T06:04:51.550Z,91.10
2017-09-28T06:07:19.089Z,91.10
2017-09-28T06:09:46.670Z,91.00
2017-09-28T06:12:15.537Z,91.10
2017-09-28T06:14:43.087Z,91.00
2017-09-28T06:17:10.817Z,91.00
2017-09-28T06:19:39.169Z,91.00
2017-09-28T06:22:06.727Z,91.00
2017-09-28T06:24:34.401Z,91.00
2017-09-28T06:27:02.070Z,91.00
2017-09-28T06:29:30.391Z,91.00
2017-09-28T06:31:58.586Z,91.00
2017-09-28T06:34:26.149Z,91.00
2017-09-28T06:36:53.713Z,91.00
2017-09-28T06:39:21.309Z,90.90
2017-09-28T06:41:49.623Z,90.90
2017-09-28T06:44:17.214Z,90.90
2017-09-28T06:46:44.768Z,91.00
2017-09-28T06:49:12.537Z,91.00
2017-09-28T06:51:40.081Z,91.00
2017-09-28T06:54:07.665Z,91.00
2017-09-28T06:56:35.212Z,91.10
2017-09-28T06:59:02.793Z,91.00
2017-09-28T07:01:30.341Z,90.90
2017-09-28T07:03:58.078Z,90.90
2017-09-28T07:06:25.622Z,90.80
2017-09-28T07:08:53.173Z,90.80
2017-09-28T07:11:20.916Z,90.70
2017-09-28T07:13:49.589Z,90.70
2017-09-28T07:16:17.146Z,90.60
2017-09-28T07:18:47.505Z,90.40
2017-09-28T07:21:15.118Z,90.40
2017-09-28T07:23:42.668Z,90.60
2017-09-28T07:26:10.206Z,90.60
2017-09-28T07:28:38.518Z,90.50
2017-09-28T07:31:06.063Z,90.50
2017-09-28T07:33:33.662Z,90.50
2017-09-28T07:36:01.969Z,90.50
2017-09-28T07:38:29.550Z,90.50
2017-09-28T07:40:57.090Z,90.50
2017-09-28T07:43:24.948Z,90.50
2017-09-28T07:45:52.497Z,90.40
2017-09-28T07:48:25.959Z,90.20
2017-09-28T07:50:53.514Z,90.20
2017-09-28T07:53:21.159Z,90.20
2017-09-28T07:55:48.749Z,90.30
2017-09-28T07:58:16.438Z,90.20
2017-09-28T08:00:44.763Z,90.10
2017-09-28T08:03:12.345Z,90.10
2017-09-28T08:05:39.898Z,90.00
2017-09-28T08:08:07.490Z,89.90
2017-09-28T08:10:35.813Z,89.40
2017-09-28T08:13:06.032Z,89.40
2017-09-28T08:15:34.410Z,89.00
2017-09-28T08:18:01.957Z,89.00
2017-09-28T08:20:30.272Z,88.90
2017-09-28T08:22:57.830Z,88.90
2017-09-28T08:25:25.370Z,88.90
2017-09-28T08:27:53.013Z,88.90
2017-09-28T08:30:22.502Z,88.60
2017-09-28T08:32:50.817Z,88.30
2017-09-28T08:35:18.366Z,88.20
2017-09-28T08:37:45.957Z,88.20
2017-09-28T08:40:13.601Z,88.30
2017-09-28T08:42:41.255Z,88.30
2017-09-28T08:45:08.872Z,88.30
2017-09-28T08:47:36.822Z,88.20
2017-09-28T08:50:04.390Z,88.00
2017-09-28T08:52:31.945Z,88.10
2017-09-28T08:54:59.902Z,88.00
2017-09-28T08:57:27.452Z,87.80
2017-09-28T08:59:55.002Z,87.70
2017-09-28T09:02:22.749Z,87.40
2017-09-28T09:04:50.341Z,87.30
2017-09-28T09:07:17.895Z,87.20
2017-09-28T09:09:45.879Z,87.20
2017-09-28T09:12:13.446Z,87.20
2017-09-28T09:14:41.010Z,87.10
2017-09-28T09:17:08.972Z,87.10
2017-09-28T09:19:36.534Z,87.10
2017-09-28T09:22:04.081Z,87.00
2017-09-28T09:24:31.742Z,86.80
2017-09-28T09:26:59.306Z,86.60
2017-09-28T09:29:26.909Z,86.30
2017-09-28T09:31:55.524Z,86.00
2017-09-28T09:34:23.260Z,86.00
2017-09-28T09:36:51.618Z,85.10
2017-09-28T09:39:19.953Z,85.60
2017-09-28T09:41:48.071Z,84.80
2017-09-28T09:44:16.403Z,84.70
2017-09-28T09:46:43.965Z,84.50
2017-09-28T09:49:11.626Z,84.30
2017-09-28T09:51:39.223Z,83.80
2017-09-28T09:54:06.784Z,83.70
2017-09-28T09:56:34.425Z,83.50
2017-09-28T09:59:01.974Z,83.30
2017-09-28T10:01:29.702Z,84.10
2017-09-28T10:03:57.294Z,83.40
2017-09-28T10:06:24.899Z,83.10
2017-09-28T10:08:58.698Z,82.70
2017-09-28T10:11:27.558Z,82.40
2017-09-28T10:13:55.553Z,82.00
2017-09-28T10:16:23.109Z,81.20
2017-09-28T10:18:50.933Z,81.00
2017-09-28T10:21:18.543Z,80.90
2017-09-28T10:23:46.917Z,80.90
2017-09-28T10:26:14.505Z,80.90
2017-09-28T10:28:42.850Z,80.60
2017-09-28T10:31:14.102Z,80.60
2017-09-28T10:33:42.006Z,80.60
2017-09-28T10:36:09.909Z,80.20
2017-09-28T10:38:37.473Z,80.00
2017-09-28T10:41:05.058Z,80.10
2017-09-28T10:43:32.618Z,79.90
2017-09-28T10:46:00.337Z,79.60
2017-09-28T10:48:28.658Z,79.50
2017-09-28T10:50:56.545Z,79.40
2017-09-28T10:53:24.084Z,79.70
2017-09-28T10:55:51.680Z,79.60
2017-09-28T10:58:20.007Z,79.00
2017-09-28T11:00:47.561Z,79.00
2017-09-28T11:03:15.148Z,78.80
2017-09-28T11:05:42.697Z,79.60
2017-09-28T11:08:11.789Z,78.80
2017-09-28T11:10:39.358Z,78.90
2017-09-28T11:13:06.957Z,78.90
2017-09-28T11:15:41.129Z,79.00
2017-09-28T11:18:08.718Z,79.00
2017-09-28T11:20:36.269Z,79.00
2017-09-28T11:23:05.033Z,79.40
2017-09-28T11:25:32.584Z,79.00
2017-09-28T11:28:00.131Z,79.00
2017-09-28T11:30:27.868Z,78.90
2017-09-28T11:32:58.046Z,78.80
2017-09-28T11:35:25.607Z,78.80
2017-09-28T11:37:53.169Z,78.80
2017-09-28T11:40:20.761Z,78.90
2017-09-28T11:42:49.072Z,79.50
2017-09-28T11:45:16.746Z,79.40
2017-09-28T11:47:44.300Z,79.90
2017-09-28T11:50:12.026Z,80.00
2017-09-28T11:52:40.353Z,79.80
2017-09-28T11:55:08.696Z,79.70
2017-09-28T11:57:36.250Z,79.40
2017-09-28T12:00:04.573Z,78.90
2017-09-28T12:02:32.750Z,78.90
2017-09-28T12:05:00.297Z,78.60
2017-09-28T12:07:27.849Z,78.50
2017-09-28T12:09:55.490Z,78.30
2017-09-28T12:12:23.079Z,78.10
2017-09-28T12:14:51.394Z,78.00
2017-09-28T12:17:18.978Z,77.90
2017-09-28T12:19:47.299Z,78.10
2017-09-28T12:22:14.972Z,78.00
2017-09-28T12:24:42.541Z,78.20
2017-09-28T12:27:10.150Z,78.20
2017-09-28T12:29:37.699Z,78.30
2017-09-28T12:32:06.014Z,78.70
2017-09-28T12:34:33.901Z,78.60
2017-09-28T12:37:02.654Z,78.50
2017-09-28T12:39:30.662Z,78.10
2017-09-28T12:41:58.244Z,78.10
2017-09-28T12:44:25.839Z,78.30
2017-09-28T12:46:53.397Z,78.20
2017-09-28T12:49:20.990Z,78.50
2017-09-28T12:51:49.311Z,78.70
2017-09-28T12:54:18.230Z,78.90
2017-09-28T12:56:45.782Z,78.70
2017-09-28T12:59:14.094Z,79.40
2017-09-28T13:01:41.822Z,79.40
2017-09-28T13:04:10.137Z,79.10
2017-09-28T13:06:37.735Z,79.00
2017-09-28T13:09:05.853Z,78.90
2017-09-28T13:11:33.406Z,78.80
2017-09-28T13:14:00.959Z,78.70
2017-09-28T13:16:28.886Z,78.30
2017-09-28T13:18:56.437Z,77.80
2017-09-28T13:21:23.987Z,77.30
2017-09-28T13:23:51.766Z,77.00
2017-09-28T13:26:19.354Z,76.80
2017-09-28T13:28:47.735Z,76.60
2017-09-28T13:31:21.004Z,76.60
2017-09-28T13:33:48.554Z,76.60
2017-09-28T13:36:16.149Z,76.50
2017-09-28T13:38:44.474Z,76.20
2017-09-28T13:41:12.130Z,76.20
2017-09-28T13:43:39.688Z,76.20
2017-09-28T13:46:07.471Z,76.10
2017-09-28T13:48:35.050Z,76.00
2017-09-28T13:51:02.610Z,75.80
2017-09-28T13:53:30.685Z,75.80
2017-09-28T13:55:58.253Z,75.90
2017-09-28T13:58:25.850Z,75.90
2017-09-28T14:00:53.754Z,75.90
2017-09-28T14:03:23.702Z,76.00
2017-09-28T14:05:52.364Z,75.60
2017-09-28T14:08:19.958Z,75.60
2017-09-28T14:10:48.316Z,75.40
2017-09-28T14:13:15.923Z,75.30
2017-09-28T14:15:43.490Z,75.20
2017-09-28T14:18:11.155Z,75.10
2017-09-28T14:20:38.990Z,75.30
2017-09-28T14:23:07.351Z,75.40
2017-09-28T14:25:34.898Z,75.40
2017-09-28T14:28:02.507Z,75.20
2017-09-28T14:30:30.161Z,75.10
2017-09-28T14:33:05.305Z,74.70
2017-09-28T14:35:32.911Z,74.60
2017-09-28T14:38:00.660Z,74.40
2017-09-28T14:40:28.249Z,74.40
2017-09-28T14:42:57.557Z,74.60
2017-09-28T14:45:25.915Z,74.30
2017-09-28T14:47:53.476Z,74.30
2017-09-28T14:50:21.553Z,74.50
2017-09-28T14:52:49.097Z,74.50
2017-09-28T14:55:16.656Z,74.60
2017-09-28T14:57:45.503Z,74.60
2017-09-28T15:00:13.861Z,74.70
2017-09-28T15:02:41.462Z,74.60
2017-09-28T15:05:09.017Z,74.60
2017-09-28T15:07:36.614Z,74.70
2017-09-28T15:10:04.186Z,74.90
2017-09-28T15:12:32.138Z,75.10
2017-09-28T15:14:59.738Z,75.30
2017-09-28T15:17:27.332Z,75.30
2017-09-28T15:19:54.946Z,75.30
2017-09-28T15:22:22.922Z,75.50
2017-09-28T15:24:50.475Z,75.60
2017-09-28T15:27:18.033Z,75.40
2017-09-28T15:29:45.999Z,75.50
2017-09-28T15:32:20.468Z,75.70
2017-09-28T15:34:48.010Z,76.00
2017-09-28T15:37:16.347Z,76.30
2017-09-28T15:39:43.939Z,76.30
2017-09-28T15:42:11.822Z,76.40
2017-09-28T15:44:40.144Z,76.50
2017-09-28T15:47:07.711Z,76.40
2017-09-28T15:49:35.447Z,76.60
2017-09-28T15:52:03.200Z,77.40
2017-09-28T15:54:30.837Z,76.60
2017-09-28T15:56:58.438Z,76.70
2017-09-28T15:59:26.029Z,77.40
2017-09-28T16:01:53.580Z,76.80
2017-09-28T16:04:21.236Z,76.90
2017-09-28T16:06:48.791Z,77.00
2017-09-28T16:09:17.822Z,77.00
2017-09-28T16:11:45.378Z,76.80
2017-09-28T16:14:12.970Z,76.80
2017-09-28T16:16:41.289Z,77.10
2017-09-28T16:19:11.742Z,77.00
2017-09-28T16:21:39.470Z,77.00
2017-09-28T16:24:07.292Z,77.20
2017-09-28T16:26:35.661Z,77.40
2017-09-28T16:29:03.730Z,77.40
2017-09-28T16:31:31.274Z,77.50
2017-09-28T16:33:58.823Z,77.60
2017-09-28T16:36:26.562Z,77.60
2017-09-28T16:38:54.569Z,77.80
2017-09-28T16:41:22.109Z,77.80
2017-09-28T16:43:51.799Z,77.80
2017-09-28T16:46:19.434Z,77.90
2017-09-28T16:48:47.765Z,77.90
2017-09-28T16:51:17.085Z,77.90
2017-09-28T16:53:44.652Z,78.00
2017-09-28T16:56:12.198Z,78.00
2017-09-28T16:58:42.925Z,78.20
2017-09-28T17:01:11.331Z,78.60
2017-09-28T17:03:38.878Z,78.60
2017-09-28T17:06:07.828Z,78.70
2017-09-28T17:08:35.384Z,78.90
2017-09-28T17:11:03.306Z,79.10
2017-09-28T17:13:30.855Z,79.30
2017-09-28T17:15:58.411Z,79.30
2017-09-28T17:18:25.999Z,79.30
2017-09-28T17:20:53.590Z,79.30
2017-09-28T17:23:21.466Z,78.90
2017-09-28T17:25:49.111Z,79.40
2017-09-28T17:28:17.136Z,79.50
2017-09-28T17:30:44.688Z,79.40
2017-09-28T17:33:12.281Z,79.50
2017-09-28T17:35:39.870Z,79.50
2017-09-28T17:38:07.426Z,79.60
2017-09-28T17:40:35.350Z,79.70
2017-09-28T17:43:03.094Z,79.80
2017-09-28T17:45:30.657Z,79.80
2017-09-28T17:47:58.266Z,79.90
2017-09-28T17:50:26.602Z,80.00
2017-09-28T17:52:54.182Z,80.00
2017-09-28T17:55:21.974Z,80.10
2017-09-28T17:57:50.315Z,80.50
2017-09-28T18:00:18.310Z,80.50
2017-09-28T18:02:46.636Z,80.20
2017-09-28T18:05:14.493Z,80.70
2017-09-28T18:07:42.055Z,80.90
2017-09-28T18:10:09.620Z,81.00
2017-09-28T18:12:37.725Z,81.30
2017-09-28T18:15:05.278Z,81.50
2017-09-28T18:17:32.851Z,81.70
2017-09-28T18:20:00.812Z,81.90
2017-09-28T18:22:28.374Z,82.10
2017-09-28T18:24:55.930Z,82.20
2017-09-28T18:27:26.209Z,82.30
2017-09-28T18:29:53.985Z,82.30
2017-09-28T18:32:21.544Z,82.50
2017-09-28T18:34:49.202Z,82.50
2017-09-28T18:37:18.126Z,82.60
2017-09-28T18:39:45.683Z,82.60
2017-09-28T18:42:13.634Z,82.60
2017-09-28T18:44:41.193Z,82.70
2017-09-28T18:47:08.753Z,82.90
2017-09-28T18:49:36.415Z,82.90
2017-09-28T18:52:05.333Z,83.70
2017-09-28T18:54:32.899Z,83.10
2017-09-28T18:57:00.783Z,83.20
2017-09-28T18:59:28.348Z,83.40
2017-09-28T19:01:55.907Z,83.50
2017-09-28T19:04:24.270Z,84.30
2017-09-28T19:06:52.385Z,83.70
2017-09-28T19:09:19.943Z,83.80
2017-09-28T19:11:48.275Z,84.00
2017-09-28T19:14:15.873Z,84.00
2017-09-28T19:16:44.191Z,84.10
2017-09-28T19:19:12.150Z,84.10
2017-09-28T19:21:39.837Z,84.10
2017-09-28T19:24:07.402Z,84.20
2017-09-28T19:26:35.077Z,84.30
2017-09-28T19:29:03.054Z,84.40
2017-09-28T19:31:30.943Z,84.50
2017-09-28T19:33:59.265Z,84.70
2017-09-28T19:36:27.234Z,84.70
2017-09-28T19:38:54.798Z,84.80
2017-09-28T19:41:22.412Z,84.90
2017-09-28T19:43:50.902Z,85.30
2017-09-28T19:46:18.894Z,85.20
2017-09-28T19:48:47.186Z,85.60
2017-09-28T19:51:14.781Z,85.90
2017-09-28T19:53:44.178Z,86.20
2017-09-28T19:56:11.765Z,86.50
2017-09-28T19:58:40.088Z,87.00
2017-09-28T20:01:07.682Z,87.00
2017-09-28T20:03:35.752Z,87.40
2017-09-28T20:06:03.323Z,87.80
2017-09-28T20:08:31.647Z,88.90
2017-09-28T20:10:59.419Z,88.20
2017-09-28T20:13:26.979Z,88.20
2017-09-28T20:15:54.533Z,88.50
2017-09-28T20:18:22.138Z,88.80
2017-09-28T20:20:49.859Z,89.00
2017-09-28T20:23:17.409Z,89.90
2017-09-28T20:25:45.266Z,89.30
2017-09-28T20:28:12.834Z,89.40
2017-09-28T20:30:40.405Z,89.50
2017-09-28T20:33:09.065Z,89.60
2017-09-28T20:35:37.421Z,89.90
2017-09-28T20:38:04.971Z,90.20
2017-09-28T20:40:32.525Z,90.30
2017-09-28T20:43:00.126Z,90.00
2017-09-28T20:45:29.279Z,90.00
2017-09-28T20:47:57.248Z,90.10
2017-09-28T20:50:24.843Z,90.10
2017-09-28T20:52:53.696Z,90.10
2017-09-28T20:55:21.253Z,90.10
2017-09-28T20:57:48.812Z,90.10
2017-09-28T21:00:16.417Z,90.20
2017-09-28T21:02:44.779Z,90.20
2017-09-28T21:05:12.330Z,90.20
2017-09-28T21:07:40.255Z,90.30
2017-09-28T21:10:07.865Z,90.30
2017-09-28T21:12:35.459Z,90.50
2017-09-28T21:15:03.025Z,90.40
2017-09-28T21:17:30.618Z,90.40
2017-09-28T21:19:58.171Z,90.40
2017-09-28T21:22:25.778Z,90.40
2017-09-28T21:24:54.107Z,90.40
2017-09-28T21:27:21.855Z,90.40
2017-09-28T21:29:49.410Z,90.40
2017-09-28T21:32:17.002Z,90.50
2017-09-28T21:34:44.709Z,90.50
2017-09-28T21:37:13.366Z,90.40
2017-09-28T21:39:40.924Z,90.40
2017-09-28T21:42:08.478Z,90.40
2017-09-28T21:44:36.346Z,90.40
2017-09-28T21:47:03.912Z,90.40
2017-09-28T21:49:31.629Z,90.40
2017-09-28T21:51:59.178Z,90.40
2017-09-28T21:54:27.538Z,90.50
2017-09-28T21:56:55.794Z,90.50
2017-09-28T21:59:23.346Z,90.50
2017-09-28T22:01:50.898Z,90.60
2017-09-28T22:04:18.502Z,90.60
2017-09-28T22:06:46.822Z,90.70
2017-09-28T22:09:14.370Z,90.70
2017-09-28T22:11:41.957Z,90.70
2017-09-28T22:14:09.548Z,90.70
2017-09-28T22:16:37.102Z,90.60
2017-09-28T22:19:04.701Z,90.70
2017-09-28T22:21:32.782Z,90.70
2017-09-28T22:24:00.378Z,90.70
2017-09-28T22:26:27.927Z,90.70
2017-09-28T22:28:55.807Z,90.80
2017-09-28T22:31:24.194Z,90.90
2017-09-28T22:33:51.838Z,90.80
2017-09-28T22:36:19.390Z,90.90
2017-09-28T22:38:46.974Z,90.80
2017-09-28T22:41:14.526Z,90.90
2017-09-28T22:43:42.398Z,90.90
2017-09-28T22:46:09.953Z,90.90
2017-09-28T22:48:37.521Z,91.00
2017-09-28T22:51:05.115Z,91.00
2017-09-28T22:53:32.662Z,91.00
2017-09-28T22:56:00.254Z,91.10
2017-09-28T22:58:27.810Z,91.10
2017-09-28T23:00:55.547Z,91.10
2017-09-28T23:03:23.094Z,91.10
2017-09-28T23:05:50.683Z,91.30
2017-09-28T23:08:18.238Z,91.20
2017-09-28T23:10:46.589Z,91.30
2017-09-28T23:13:14.179Z,91.20
2017-09-28T23:15:41.766Z,91.30
2017-09-28T23:18:09.315Z,91.30
2017-09-28T23:20:36.918Z,91.30
2017-09-28T23:23:04.745Z,91.40
2017-09-28T23:25:32.338Z,91.40
2017-09-28T23:27:59.895Z,91.40
2017-09-28T23:30:27.589Z,91.40
2017-09-28T23:32:55.137Z,91.50
2017-09-28T23:35:22.694Z,91.50
2017-09-28T23:37:50.292Z,91.60
2017-09-28T23:40:18.612Z,91.60
2017-09-28T23:42:46.502Z,91.60
2017-09-28T23:45:14.062Z,91.60
2017-09-28T23:47:41.613Z,91.60
2017-09-28T23:50:09.269Z,91.70
2017-09-28T23:52:36.861Z,91.70
2017-09-28T23:55:04.417Z,91.70
2017-09-28T23:57:32.011Z,91.80
